Time;durP1;ratioP1;P1;durP2;ratioP2;P2;SDS_P1;SDS_P2;PMS_P1;PMS_P2;Temp;Humidity;BMP_temperature;BMP_pressure;BME280_temperature;BME280_humidity;BME280_pressure;Samples;Min_cycle;Max_cycle;Signal;HPM_P1;HPM_P2
2024/01/05 00:01:46;;;;;;;0.68;0.50;;;;;;;8.18;100.00;99908.44;5094669;27;96831;-28
2024/01/05 00:04:11;;;;;;;0.82;0.50;;;;;;;8.22;100.00;99911.78;5095793;27;96793;-29
2024/01/05 00:06:40;;;;;;;0.50;0.50;;;;;;;8.25;100.00;99907.06;5076729;27;98059;-28
2024/01/05 00:09:08;;;;;;;0.85;0.63;;;;;;;8.24;100.00;99893.69;5095287;27;97864;-28
2024/01/05 00:11:34;;;;;;;0.43;0.40;;;;;;;8.29;100.00;99902.31;5076817;27;96595;-27
2024/01/05 00:13:59;;;;;;;1.27;0.60;;;;;;;8.20;100.00;99893.03;5095645;27;96608;-29
2024/01/05 00:16:25;;;;;;;10.45;0.90;;;;;;;8.23;100.00;99897.34;5095046;27;98937;-27
2024/01/05 00:18:51;;;;;;;2.30;1.35;;;;;;;8.24;100.00;99896.38;5095657;27;97864;-28
2024/01/05 00:21:24;;;;;;;1.60;0.82;;;;;;;8.15;100.00;99884.38;5095308;27;96722;-28
2024/01/05 00:23:51;;;;;;;0.45;0.45;;;;;;;8.20;100.00;99882.25;5076705;27;96848;-28
2024/01/05 00:26:17;;;;;;;1.45;0.63;;;;;;;8.22;100.00;99882.13;5075850;27;101149;-27
2024/01/05 00:28:43;;;;;;;5.15;0.70;;;;;;;8.24;100.00;99882.88;5097982;27;99110;-28
2024/01/05 00:31:15;;;;;;;0.90;0.60;;;;;;;8.25;100.00;99873.84;5080270;27;96528;-28
2024/01/05 00:33:42;;;;;;;1.25;0.82;;;;;;;8.25;100.00;99868.44;5098804;27;96777;-28
2024/01/05 00:36:09;;;;;;;7.20;1.02;;;;;;;8.28;100.00;99869.09;5079754;27;99012;-27
2024/01/05 00:38:34;;;;;;;0.75;0.35;;;;;;;8.30;100.00;99872.56;5079942;27;100668;-28
2024/01/05 00:41:00;;;;;;;3.22;0.43;;;;;;;8.31;100.00;99873.41;5079791;27;96598;-28
2024/01/05 00:43:25;;;;;;;7.07;0.65;;;;;;;8.25;100.00;99853.13;5098621;27;96811;-29
2024/01/05 00:45:50;;;;;;;0.82;0.32;;;;;;;8.30;100.00;99853.66;5098482;27;97946;-28
2024/01/05 00:48:16;;;;;;;1.20;0.43;;;;;;;8.30;100.00;99852.81;5098394;27;97928;-28
2024/01/05 00:50:41;;;;;;;0.52;0.40;;;;;;;8.36;100.00;99857.75;5097518;27;96682;-27
2024/01/05 00:53:06;;;;;;;2.20;0.70;;;;;;;8.34;100.00;99851.59;5098687;27;96596;-27
2024/01/05 00:55:32;;;;;;;1.05;0.50;;;;;;;8.36;100.00;99840.72;5097925;27;97778;-28
2024/01/05 00:57:58;;;;;;;0.57;0.55;;;;;;;8.40;100.00;99851.22;5098217;27;97861;-28
2024/01/05 01:00:24;;;;;;;1.30;0.85;;;;;;;8.34;100.00;99839.94;5098307;27;96475;-29
2024/01/05 01:02:50;;;;;;;3.33;0.60;;;;;;;8.33;100.00;99833.69;5098131;27;96918;-28
2024/01/05 01:05:16;;;;;;;0.73;0.65;;;;;;;8.36;100.00;99835.31;5079532;27;100837;-29
2024/01/05 01:07:41;;;;;;;2.50;0.28;;;;;;;8.37;100.00;99826.28;5098249;27;99269;-28
2024/01/05 01:10:07;;;;;;;1.45;0.63;;;;;;;8.41;100.00;99835.91;5098134;27;96592;-27
2024/01/05 01:12:32;;;;;;;0.40;0.20;;;;;;;8.36;100.00;99813.75;5098512;27;96774;-28
2024/01/05 01:14:57;;;;;;;0.85;0.60;;;;;;;8.39;100.00;99810.81;5097635;27;98607;-28
2024/01/05 01:17:23;;;;;;;3.35;0.45;;;;;;;8.45;100.00;99814.00;5098034;27;97812;-27
2024/01/05 01:19:49;;;;;;;1.60;0.13;;;;;;;8.44;100.00;99806.03;5098104;27;96687;-28
2024/01/05 01:22:14;;;;;;;4.63;0.30;;;;;;;8.46;100.00;99790.56;5098229;27;96759;-28
2024/01/05 01:24:40;;;;;;;0.47;0.20;;;;;;;8.45;100.00;99787.00;5097828;27;98455;-27
2024/01/05 01:27:05;;;;;;;0.38;0.17;;;;;;;8.43;100.00;99778.16;5097926;27;97813;-27
2024/01/05 01:29:30;;;;;;;0.95;0.32;;;;;;;8.46;100.00;99785.16;5097888;27;96517;-28
2024/01/05 01:31:55;;;;;;;1.17;0.22;;;;;;;8.47;100.00;99785.06;5098545;27;96810;-28
2024/01/05 01:34:22;;;;;;;0.25;0.13;;;;;;;8.49;100.00;99779.56;5097686;27;97336;-28
2024/01/05 01:36:47;;;;;;;2.13;0.25;;;;;;;8.50;100.00;99773.19;5097700;27;97295;-28
2024/01/05 01:39:12;;;;;;;0.68;0.35;;;;;;;8.51;100.00;99769.53;5096756;27;96588;-28
2024/01/05 01:41:37;;;;;;;0.43;0.17;;;;;;;8.53;100.00;99764.00;5097905;27;96786;-27
2024/01/05 01:44:03;;;;;;;0.77;0.47;;;;;;;8.52;100.00;99765.84;5097169;27;98664;-28
2024/01/05 01:46:31;;;;;;;0.20;0.20;;;;;;;8.47;100.00;99760.78;5097277;27;99213;-28
2024/01/05 01:48:57;;;;;;;0.50;0.30;;;;;;;8.53;100.00;99759.47;5078921;27;96746;-28
2024/01/05 01:51:23;;;;;;;1.55;0.32;;;;;;;8.49;100.00;99739.09;5078851;27;96859;-27
2024/01/05 01:53:50;;;;;;;5.55;0.60;;;;;;;8.52;100.00;99746.09;5096787;27;99387;-27
2024/01/05 01:56:15;;;;;;;0.22;0.22;;;;;;;8.57;100.00;99743.94;5078938;27;99064;-29
2024/01/05 01:58:43;;;;;;;0.22;0.20;;;;;;;8.56;100.00;99731.44;5097423;27;96633;-27
2024/01/05 02:01:11;;;;;;;0.93;0.35;;;;;;;8.58;100.00;99732.16;5096982;27;96806;-28
2024/01/05 02:03:37;;;;;;;2.85;0.43;;;;;;;8.59;100.00;99731.22;5077833;27;99037;-29
2024/01/05 02:06:02;;;;;;;1.13;0.00;;;;;;;8.59;100.00;99717.72;5097175;27;97822;-27
2024/01/05 02:08:28;;;;;;;1.20;0.20;;;;;;;8.61;100.00;99704.97;5096906;27;96675;-29
2024/01/05 02:10:53;;;;;;;3.92;0.43;;;;;;;8.62;100.00;99707.53;5097568;27;96775;-27
2024/01/05 02:13:20;;;;;;;5.78;1.05;;;;;;;8.66;100.00;99706.34;5096812;27;99649;-28
2024/01/05 02:15:45;;;;;;;4.15;0.55;;;;;;;8.62;100.00;99694.03;5078211;27;100814;-27
2024/01/05 02:18:14;;;;;;;2.95;0.32;;;;;;;8.68;100.00;99706.25;5097132;27;96597;-28
2024/01/05 02:20:44;;;;;;;1.40;0.52;;;;;;;8.67;100.00;99699.13;5078933;27;96753;-28
2024/01/05 02:23:33;;;;;;;1.30;0.38;;;;;;;8.67;100.00;99694.56;5078114;27;101022;-28
2024/01/05 02:26:00;;;;;;;4.22;0.20;;;;;;;8.67;100.00;99689.16;5078018;27;101633;-28
2024/01/05 02:28:25;;;;;;;0.52;0.30;;;;;;;8.71;100.00;99690.69;5077776;27;96543;-30
2024/01/05 02:30:55;;;;;;;0.55;0.15;;;;;;;8.73;100.00;99687.88;5096831;27;96824;-28
2024/01/05 02:33:21;;;;;;;0.52;0.35;;;;;;;8.75;100.00;99687.75;5077821;27;100964;-28
2024/01/05 02:35:46;;;;;;;0.57;0.30;;;;;;;8.70;100.00;99678.16;5077975;27;99386;-28
2024/01/05 02:38:12;;;;;;;0.32;0.28;;;;;;;8.74;100.00;99676.09;5097036;27;96487;-27
2024/01/05 02:40:37;;;;;;;0.13;0.13;;;;;;;8.74;100.00;99667.13;5096955;27;96732;-28
2024/01/05 02:43:03;;;;;;;1.65;0.17;;;;;;;8.78;100.00;99672.22;5095961;27;99260;-28
2024/01/05 02:45:29;;;;;;;0.15;0.15;;;;;;;8.75;100.00;99655.34;5097075;27;97840;-28
2024/01/05 02:47:54;;;;;;;0.70;0.25;;;;;;;8.74;100.00;99664.44;5077944;27;96753;-28
2024/01/05 02:50:20;;;;;;;3.95;0.55;;;;;;;8.73;100.00;99666.28;5095734;27;96680;-28
2024/01/05 02:52:45;;;;;;;6.28;0.73;;;;;;;8.71;100.00;99650.19;5094929;27;99735;-28
2024/01/05 02:55:12;;;;;;;0.38;0.38;;;;;;;8.75;100.00;99647.25;5096173;27;99093;-29
2024/01/05 02:57:38;;;;;;;0.20;0.20;;;;;;;8.75;100.00;99649.97;5077976;27;96702;-28
2024/01/05 03:00:05;;;;;;;0.60;0.32;;;;;;;8.79;100.00;99665.81;5077980;27;96860;-28
2024/01/05 03:02:30;;;;;;;0.60;0.30;;;;;;;8.76;100.00;99636.34;5076872;27;100802;-29
2024/01/05 03:04:56;;;;;;;0.03;0.00;;;;;;;8.82;100.00;99640.44;5096322;27;97750;-28
2024/01/05 03:07:22;;;;;;;2.33;0.50;;;;;;;8.89;100.00;99645.28;5096719;27;96493;-28
2024/01/05 03:09:47;;;;;;;0.47;0.30;;;;;;;8.90;100.00;99648.84;5078315;27;96842;-28
2024/01/05 03:12:13;;;;;;;0.57;0.40;;;;;;;8.90;100.00;99641.59;5096265;27;97359;-27
2024/01/05 03:14:38;;;;;;;0.05;0.05;;;;;;;8.92;100.00;99636.09;5096141;27;96946;-28
2024/01/05 03:17:04;;;;;;;1.20;0.45;;;;;;;8.84;100.00;99635.78;5096156;27;96453;-27
2024/01/05 03:19:30;;;;;;;1.05;0.30;;;;;;;8.92;100.00;99639.66;5077579;27;96869;-28
2024/01/05 03:21:55;;;;;;;2.72;0.32;;;;;;;8.91;100.00;99632.53;5095647;27;99588;-27
2024/01/05 03:24:21;;;;;;;0.82;0.45;;;;;;;8.83;100.00;99612.47;5095645;27;99395;-28
2024/01/05 03:26:46;;;;;;;0.22;0.17;;;;;;;8.88;100.00;99621.09;5096077;27;96481;-28
2024/01/05 03:29:11;;;;;;;1.30;0.43;;;;;;;8.84;100.00;99612.38;5096024;27;96768;-28
2024/01/05 03:31:37;;;;;;;1.30;0.52;;;;;;;8.81;100.00;99609.88;5095589;27;98793;-28
2024/01/05 03:34:02;;;;;;;0.00;0.00;;;;;;;8.79;100.00;99608.25;5096220;27;98318;-28
2024/01/05 03:36:28;;;;;;;0.85;0.50;;;;;;;8.79;100.00;99601.03;5095964;27;96541;-27
2024/01/05 03:38:54;;;;;;;1.17;0.57;;;;;;;8.84;100.00;99595.28;5096094;27;96751;-28
2024/01/05 03:41:19;;;;;;;0.20;0.20;;;;;;;8.80;100.00;99583.00;5095366;27;97954;-28
2024/01/05 03:43:44;;;;;;;0.15;0.15;;;;;;;8.77;100.00;99577.81;5095328;27;98125;-29
2024/01/05 03:46:13;;;;;;;0.20;0.20;;;;;;;8.79;100.00;99581.25;5095974;27;96533;-28
2024/01/05 03:48:38;;;;;;;7.68;0.50;;;;;;;8.78;100.00;99577.72;5095882;27;96846;-29
2024/01/05 03:51:04;;;;;;;0.25;0.13;;;;;;;8.76;100.00;99571.56;5095423;27;97991;-28
2024/01/05 03:53:30;;;;;;;1.15;0.73;;;;;;;8.75;100.00;99558.16;5076918;27;101059;-28
2024/01/05 03:55:59;;;;;;;0.00;0.00;;;;;;;8.77;100.00;99551.69;5095837;27;96445;-29
2024/01/05 03:58:24;;;;;;;0.98;0.68;;;;;;;8.70;100.00;99543.19;5077695;27;96853;-28
2024/01/05 04:00:49;;;;;;;0.30;0.20;;;;;;;8.70;100.00;99537.78;5076151;27;101733;-28
2024/01/05 04:03:17;;;;;;;0.08;0.08;;;;;;;8.82;100.00;99548.63;5098304;27;97265;-28
2024/01/05 04:05:42;;;;;;;0.73;0.40;;;;;;;8.85;100.00;99541.16;5080195;27;96584;-27
2024/01/05 04:08:08;;;;;;;1.52;0.38;;;;;;;8.83;100.00;99524.22;5080784;27;96892;-28
2024/01/05 04:10:33;;;;;;;0.50;0.47;;;;;;;8.86;100.00;99523.97;5098995;27;97436;-29
2024/01/05 04:12:58;;;;;;;2.70;0.15;;;;;;;8.80;100.00;99513.66;5098868;27;97687;-28
2024/01/05 04:15:24;;;;;;;0.82;0.28;;;;;;;8.84;100.00;99515.16;5099153;27;96570;-28
2024/01/05 04:17:49;;;;;;;2.63;0.30;;;;;;;8.84;100.00;99507.06;5099274;27;96670;-28
2024/01/05 04:20:14;;;;;;;0.00;0.00;;;;;;;8.88;100.00;99516.63;5099051;27;97363;-27
2024/01/05 04:22:40;;;;;;;0.75;0.32;;;;;;;8.89;100.00;99504.88;5098953;27;99295;-28
2024/01/05 04:25:05;;;;;;;0.40;0.20;;;;;;;8.86;100.00;99509.63;5099020;27;96471;-27
2024/01/05 04:27:31;;;;;;;0.13;0.05;;;;;;;8.87;100.00;99514.06;5098996;27;96790;-28
2024/01/05 04:29:56;;;;;;;0.75;0.15;;;;;;;8.81;100.00;99499.16;5098328;27;97905;-27
2024/01/05 04:32:21;;;;;;;0.30;0.20;;;;;;;8.83;100.00;99513.41;5098436;27;97777;-27
2024/01/05 04:34:47;;;;;;;0.93;0.40;;;;;;;8.80;100.00;99502.00;5098962;27;96695;-28
2024/01/05 04:37:12;;;;;;;0.03;0.00;;;;;;;8.80;100.00;99489.38;5098804;27;96762;-28
2024/01/05 04:39:38;;;;;;;0.40;0.35;;;;;;;8.78;100.00;99488.63;5098528;27;97125;-28
2024/01/05 04:42:03;;;;;;;1.55;0.55;;;;;;;8.82;100.00;99495.50;5098255;27;99152;-28
2024/01/05 04:44:29;;;;;;;1.10;0.32;;;;;;;8.79;100.00;99490.31;5098438;27;96619;-27
2024/01/05 04:46:54;;;;;;;0.10;0.10;;;;;;;8.81;100.00;99485.66;5099204;27;96892;-28
2024/01/05 04:49:19;;;;;;;1.80;0.15;;;;;;;8.84;100.00;99495.38;5098111;27;99382;-28
2024/01/05 04:51:45;;;;;;;0.38;0.25;;;;;;;8.75;100.00;99491.56;5098104;27;98287;-27
2024/01/05 04:54:10;;;;;;;0.15;0.10;;;;;;;8.80;100.00;99488.50;5098035;27;96455;-28
2024/01/05 04:56:35;;;;;;;1.95;0.40;;;;;;;8.75;100.00;99488.84;5098426;27;96876;-28
2024/01/05 04:59:01;;;;;;;1.17;0.52;;;;;;;8.74;100.00;99487.13;5098208;27;97228;-28
2024/01/05 05:01:26;;;;;;;0.70;0.30;;;;;;;8.75;100.00;99482.56;5097274;27;99099;-28
2024/01/05 05:03:52;;;;;;;0.38;0.22;;;;;;;8.62;100.00;99494.31;5098257;27;97008;-28
2024/01/05 05:06:17;;;;;;;0.50;0.30;;;;;;;8.55;100.00;99516.47;5098331;27;96810;-28
2024/01/05 05:08:42;;;;;;;0.17;0.13;;;;;;;8.48;100.00;99519.63;5098058;27;96843;-28
2024/01/05 05:11:07;;;;;;;0.03;0.00;;;;;;;8.31;100.00;99506.50;5098160;27;97880;-27
2024/01/05 05:13:33;;;;;;;0.00;0.00;;;;;;;8.28;100.00;99496.78;5097355;27;96679;-28
2024/01/05 05:15:58;;;;;;;0.00;0.00;;;;;;;8.24;100.00;99491.75;5097928;27;96808;-27
2024/01/05 05:18:23;;;;;;;0.00;0.00;;;;;;;8.16;100.00;99496.84;5097512;27;97364;-27
2024/01/05 05:20:49;;;;;;;2.25;0.10;;;;;;;8.12;100.00;99495.34;5097918;27;97748;-27
2024/01/05 05:23:14;;;;;;;0.05;0.05;;;;;;;8.11;100.00;99493.63;5098143;27;96652;-27
2024/01/05 05:25:40;;;;;;;0.00;0.00;;;;;;;8.05;100.00;99482.28;5098386;27;96818;-27
2024/01/05 05:28:05;;;;;;;0.00;0.00;;;;;;;7.94;100.00;99474.16;5098007;27;97378;-27
2024/01/05 05:30:31;;;;;;;0.00;0.00;;;;;;;7.98;100.00;99462.16;5097592;27;97344;-28
2024/01/05 05:32:57;;;;;;;0.00;0.00;;;;;;;7.98;100.00;99472.94;5079369;27;96720;-28
2024/01/05 05:35:22;;;;;;;0.00;0.00;;;;;;;7.96;100.00;99461.41;5098348;27;96809;-28
2024/01/05 05:37:47;;;;;;;0.00;0.00;;;;;;;7.93;100.00;99461.63;5097320;27;99169;-29
2024/01/05 05:40:13;;;;;;;0.00;0.00;;;;;;;7.98;100.00;99464.84;5097738;27;97279;-28
2024/01/05 05:42:38;;;;;;;0.08;0.05;;;;;;;7.96;100.00;99474.91;5096960;27;96699;-27
2024/01/05 05:45:04;;;;;;;0.00;0.00;;;;;;;7.92;100.00;99472.53;5097294;27;96843;-28
2024/01/05 05:47:29;;;;;;;0.00;0.00;;;;;;;7.93;100.00;99472.41;5097174;27;100083;-29
2024/01/05 05:49:55;;;;;;;0.08;0.08;;;;;;;7.90;100.00;99477.19;5097774;27;97403;-28
2024/01/05 05:52:20;;;;;;;0.10;0.10;;;;;;;7.91;100.00;99471.66;5097452;27;96529;-27
2024/01/05 05:54:45;;;;;;;0.00;0.00;;;;;;;7.88;100.00;99469.19;5097428;27;96811;-28
2024/01/05 05:57:12;;;;;;;0.00;0.00;;;;;;;7.92;100.00;99473.41;5097458;27;97068;-27
2024/01/05 05:59:37;;;;;;;0.00;0.00;;;;;;;7.86;100.00;99471.13;5078744;27;101261;-27
2024/01/05 06:02:03;;;;;;;0.10;0.03;;;;;;;7.81;100.00;99470.59;5097299;27;97154;-28
2024/01/05 06:04:28;;;;;;;0.40;0.22;;;;;;;7.76;100.00;99464.69;5097099;27;96767;-28
2024/01/05 06:06:54;;;;;;;0.05;0.05;;;;;;;7.78;100.00;99471.69;5096345;27;99413;-28
2024/01/05 06:09:19;;;;;;;0.00;0.00;;;;;;;7.75;100.00;99469.22;5096985;27;98807;-29
2024/01/05 06:11:45;;;;;;;0.00;0.00;;;;;;;7.84;100.00;99481.16;5097655;27;96521;-28
2024/01/05 06:14:10;;;;;;;0.05;0.05;;;;;;;7.87;100.00;99475.56;5097637;27;96469;-28
2024/01/05 06:16:35;;;;;;;0.43;0.10;;;;;;;7.91;100.00;99482.44;5096970;27;97912;-28
2024/01/05 06:19:01;;;;;;;0.20;0.10;;;;;;;7.90;100.00;99485.25;5096897;27;96485;-27
2024/01/05 06:21:27;;;;;;;0.00;0.00;;;;;;;7.84;100.00;99483.84;5078721;27;96561;-28
2024/01/05 06:23:53;;;;;;;0.32;0.10;;;;;;;7.73;100.00;99470.31;5097502;27;96724;-29
2024/01/05 06:26:19;;;;;;;0.13;0.10;;;;;;;7.74;100.00;99485.50;5096395;27;99336;-28
2024/01/05 06:28:44;;;;;;;0.00;0.00;;;;;;;7.63;100.00;99481.75;5078005;27;100933;-28
2024/01/05 06:31:09;;;;;;;0.00;0.00;;;;;;;7.62;100.00;99480.00;5096591;27;96435;-28
2024/01/05 06:33:35;;;;;;;1.02;0.10;;;;;;;7.61;100.00;99481.00;5097247;27;96536;-28
2024/01/05 06:36:00;;;;;;;0.00;0.00;;;;;;;7.56;100.00;99479.59;5096827;27;97809;-28
2024/01/05 06:38:25;;;;;;;0.10;0.10;;;;;;;7.56;100.00;99475.06;5096619;27;97776;-28
2024/01/05 06:40:51;;;;;;;0.00;0.00;;;;;;;7.50;100.00;99470.09;5097043;27;96451;-28
2024/01/05 06:43:16;;;;;;;0.10;0.10;;;;;;;7.51;100.00;99468.28;5096479;27;96689;-29
2024/01/05 06:45:41;;;;;;;0.00;0.00;;;;;;;7.49;100.00;99473.78;5096489;27;97986;-28
2024/01/05 06:48:07;;;;;;;0.00;0.00;;;;;;;7.42;100.00;99467.13;5097058;27;97429;-28
2024/01/05 06:50:32;;;;;;;1.23;0.20;;;;;;;7.38;100.00;99455.69;5096794;27;96611;-28
2024/01/05 06:52:57;;;;;;;1.20;0.30;;;;;;;7.36;100.00;99463.00;5096585;27;96830;-28
2024/01/05 06:55:23;;;;;;;0.00;0.00;;;;;;;7.33;100.00;99455.16;5095941;27;97899;-28
2024/01/05 06:57:48;;;;;;;0.68;0.05;;;;;;;7.26;100.00;99443.09;5096702;27;97263;-28
2024/01/05 07:00:14;;;;;;;0.20;0.08;;;;;;;7.29;100.00;99453.63;5096621;27;96744;-28
2024/01/05 07:02:40;;;;;;;0.30;0.22;;;;;;;7.22;100.00;99433.50;5096298;27;97267;-28
2024/01/05 07:05:06;;;;;;;0.13;0.10;;;;;;;7.26;100.00;99440.38;5077542;27;101230;-28
2024/01/05 07:07:32;;;;;;;0.82;0.20;;;;;;;7.25;100.00;99454.84;5096036;27;99445;-28
2024/01/05 07:09:57;;;;;;;0.08;0.08;;;;;;;7.23;100.00;99449.56;5096507;27;96582;-28
2024/01/05 07:12:23;;;;;;;0.00;0.00;;;;;;;7.16;100.00;99450.94;5096636;27;96811;-28
2024/01/05 07:14:49;;;;;;;0.00;0.00;;;;;;;7.16;100.00;99453.63;5096108;27;97261;-29
2024/01/05 07:17:14;;;;;;;0.00;0.00;;;;;;;7.16;100.00;99448.25;5096007;27;99021;-27
2024/01/05 07:19:40;;;;;;;0.13;0.13;;;;;;;7.07;100.00;99451.59;5095893;27;96543;-27
2024/01/05 07:22:06;;;;;;;0.15;0.00;;;;;;;6.99;100.00;99435.97;5096218;27;96766;-28
2024/01/05 07:24:35;;;;;;;0.17;0.13;;;;;;;6.99;100.00;99441.38;5095817;27;99000;-28
2024/01/05 07:27:00;;;;;;;0.20;0.10;;;;;;;7.01;100.00;99434.03;5077156;27;100885;-28
2024/01/05 07:29:26;;;;;;;0.00;0.00;;;;;;;7.02;100.00;99443.81;5096141;27;96688;-29
2024/01/05 07:31:51;;;;;;;1.45;0.32;;;;;;;7.10;100.00;99442.44;5096178;27;96803;-28
2024/01/05 07:34:16;;;;;;;0.35;0.08;;;;;;;7.03;100.00;99442.00;5095900;27;97841;-28
2024/01/05 07:36:42;;;;;;;1.02;0.35;;;;;;;6.93;100.00;99435.53;5095984;27;99257;-27
2024/01/05 07:39:11;;;;;;;0.00;0.00;;;;;;;6.90;100.00;99447.38;5099615;27;96724;-27
2024/01/05 07:41:36;;;;;;;0.00;0.00;;;;;;;6.95;100.00;99444.38;5081253;27;97032;-28
2024/01/05 07:44:02;;;;;;;0.05;0.00;;;;;;;6.84;100.00;99426.28;5099002;27;97562;-28
2024/01/05 07:46:27;;;;;;;0.00;0.00;;;;;;;6.82;100.00;99441.69;5099568;27;97425;-28
2024/01/05 07:48:53;;;;;;;0.10;0.10;;;;;;;6.87;100.00;99434.13;5099754;27;96552;-29
2024/01/05 07:51:21;;;;;;;0.00;0.00;;;;;;;6.83;100.00;99426.38;5099283;27;99678;-28
2024/01/05 07:53:49;;;;;;;0.30;0.10;;;;;;;6.78;100.00;99427.56;5099509;27;97993;-27
2024/01/05 07:56:18;;;;;;;0.10;0.10;;;;;;;6.83;100.00;99429.06;5098901;27;98324;-28
2024/01/05 07:58:44;;;;;;;0.30;0.20;;;;;;;6.76;100.00;99426.78;5080886;27;96549;-28
2024/01/05 08:01:20;;;;;;;0.30;0.17;;;;;;;6.68;100.00;99423.78;5080741;27;96824;-28
2024/01/05 08:03:47;;;;;;;0.10;0.10;;;;;;;6.72;100.00;99429.78;5080302;27;101407;-28
2024/01/05 08:06:19;;;;;;;0.68;0.30;;;;;;;6.72;100.00;99422.59;5080507;27;101208;-28
2024/01/05 08:08:49;;;;;;;0.10;0.10;;;;;;;6.71;100.00;99415.50;5080228;27;96647;-28
2024/01/05 08:11:15;;;;;;;0.10;0.10;;;;;;;6.64;100.00;99422.25;5099600;27;96566;-28
2024/01/05 08:13:42;;;;;;;0.55;0.45;;;;;;;6.59;100.00;99402.88;5080249;27;101015;-28
2024/01/05 08:16:08;;;;;;;0.50;0.50;;;;;;;6.56;100.00;99422.78;5080268;27;101281;-28
2024/01/05 08:18:34;;;;;;;0.30;0.10;;;;;;;6.51;100.00;99432.16;5080617;27;96630;-27
2024/01/05 08:21:00;;;;;;;0.38;0.17;;;;;;;6.46;100.00;99419.00;5080874;27;96900;-28
2024/01/05 08:23:25;;;;;;;0.17;0.17;;;;;;;6.50;100.00;99417.81;5098372;27;99744;-28
2024/01/05 08:25:51;;;;;;;0.10;0.10;;;;;;;6.51;100.00;99418.69;5098963;27;99144;-28
2024/01/05 08:28:16;;;;;;;0.17;0.17;;;;;;;6.52;100.00;99402.44;5099060;27;96502;-29
2024/01/05 08:30:41;;;;;;;0.38;0.28;;;;;;;6.53;100.00;99423.00;5099032;27;96756;-28
2024/01/05 08:33:07;;;;;;;0.30;0.30;;;;;;;6.49;100.00;99418.78;5098640;27;97776;-28
2024/01/05 08:35:34;;;;;;;0.40;0.40;;;;;;;6.50;100.00;99406.19;5098649;27;97757;-28
2024/01/05 08:38:00;;;;;;;0.10;0.10;;;;;;;6.54;100.00;99413.97;5098448;27;96622;-28
2024/01/05 08:40:28;;;;;;;0.20;0.20;;;;;;;6.53;100.00;99417.63;5099036;27;96730;-28
2024/01/05 08:42:54;;;;;;;0.25;0.20;;;;;;;6.56;100.00;99414.72;5079566;27;100835;-29
2024/01/05 08:45:19;;;;;;;0.52;0.43;;;;;;;6.51;100.00;99413.31;5062813;27;99052;-28
2024/01/05 08:47:45;;;;;;;0.43;0.43;;;;;;;6.48;100.00;99397.38;5096873;27;96632;-31
2024/01/05 08:50:11;;;;;;;0.10;0.08;;;;;;;6.50;100.00;99420.50;5097683;27;96768;-30
2024/01/05 08:52:36;;;;;;;1.55;0.38;;;;;;;6.50;100.00;99423.19;5078313;27;100918;-29
2024/01/05 08:55:02;;;;;;;2.33;0.40;;;;;;;6.52;100.00;99412.34;5098470;27;97372;-28
2024/01/05 08:57:27;;;;;;;0.10;0.10;;;;;;;6.53;100.00;99416.75;5097913;27;96542;-28
2024/01/05 08:59:52;;;;;;;0.60;0.52;;;;;;;6.58;100.00;99414.63;5098745;27;96749;-28
2024/01/05 09:02:18;;;;;;;1.33;0.77;;;;;;;6.56;100.00;99411.16;5097692;27;97382;-28
2024/01/05 09:04:43;;;;;;;0.68;0.43;;;;;;;6.58;100.00;99411.94;5097962;27;98920;-28
2024/01/05 09:07:11;;;;;;;0.17;0.17;;;;;;;6.62;100.00;99410.72;5098131;27;96668;-28
2024/01/05 09:09:37;;;;;;;0.35;0.32;;;;;;;6.58;100.00;99409.25;5079898;27;96473;-28
2024/01/05 09:12:03;;;;;;;0.47;0.47;;;;;;;6.60;100.00;99420.72;5098186;27;97889;-28
2024/01/05 09:14:28;;;;;;;0.30;0.20;;;;;;;6.61;100.00;99414.41;5098455;27;97714;-29
2024/01/05 09:16:53;;;;;;;0.10;0.10;;;;;;;6.58;100.00;99409.25;5098514;27;96612;-27
2024/01/05 09:19:20;;;;;;;0.55;0.52;;;;;;;6.62;100.00;99415.25;5098375;27;96766;-28
2024/01/05 09:21:45;;;;;;;1.48;1.08;;;;;;;6.65;100.00;99409.66;5097193;27;98249;-28
2024/01/05 09:24:10;;;;;;;0.30;0.15;;;;;;;6.64;100.00;99411.50;5097519;27;99076;-28
2024/01/05 09:26:36;;;;;;;3.70;0.50;;;;;;;6.68;100.00;99423.78;5098301;27;96542;-27
2024/01/05 09:29:01;;;;;;;0.82;0.52;;;;;;;6.73;100.00;99428.84;5098214;27;96763;-28
2024/01/05 09:31:27;;;;;;;0.32;0.32;;;;;;;6.79;100.00;99431.09;5097852;27;97426;-28
2024/01/05 09:33:54;;;;;;;0.70;0.65;;;;;;;6.80;100.00;99435.53;5078831;27;100925;-28
2024/01/05 09:36:19;;;;;;;1.15;0.80;;;;;;;6.80;100.00;99425.63;5079055;27;96688;-29
2024/01/05 09:38:45;;;;;;;0.60;0.50;;;;;;;6.82;100.00;99428.22;5098534;27;96779;-28
2024/01/05 09:41:13;;;;;;;0.30;0.20;;;;;;;6.81;100.00;99427.34;5097644;27;98012;-28
2024/01/05 09:43:41;;;;;;;0.68;0.50;;;;;;;6.79;100.00;99428.41;5078583;27;100746;-28
2024/01/05 09:46:07;;;;;;;1.05;0.55;;;;;;;6.81;100.00;99432.72;5097353;27;96623;-29
2024/01/05 09:48:32;;;;;;;0.47;0.35;;;;;;;6.85;100.00;99430.69;5079145;27;96747;-28
2024/01/05 09:50:59;;;;;;;1.05;0.68;;;;;;;6.86;100.00;99431.53;5097297;27;97356;-28
2024/01/05 09:53:25;;;;;;;0.50;0.50;;;;;;;6.95;100.00;99429.06;5078788;27;100818;-28
2024/01/05 09:55:50;;;;;;;0.52;0.43;;;;;;;6.92;100.00;99429.28;5097711;27;96558;-28
2024/01/05 09:58:16;;;;;;;0.43;0.30;;;;;;;6.95;100.00;99428.22;5097742;27;96784;-28
2024/01/05 10:00:52;;;;;;;0.30;0.30;;;;;;;6.92;100.00;99439.22;5077198;27;100968;-28
2024/01/05 10:03:23;;;;;;;0.47;0.30;;;;;;;6.92;100.00;99426.59;5097578;27;97509;-27
2024/01/05 10:05:53;;;;;;;0.50;0.50;;;;;;;6.95;100.00;99420.16;5097251;27;96851;-28
2024/01/05 10:08:22;;;;;;;0.25;0.15;;;;;;;6.96;100.00;99420.03;5097339;27;96796;-28
2024/01/05 10:10:55;;;;;;;0.30;0.30;;;;;;;6.94;100.00;99418.44;5078030;27;100985;-28
2024/01/05 10:13:20;;;;;;;0.28;0.25;;;;;;;6.86;100.00;99418.94;5096921;27;99394;-28
2024/01/05 10:16:04;;;;;;;3.33;0.80;;;;;;;6.98;100.00;99410.03;5097221;27;96447;-28
2024/01/05 10:18:30;;;;;;;0.00;0.00;;;;;;;7.06;100.00;99414.03;5078690;27;96783;-29
2024/01/05 10:21:07;;;;;;;0.28;0.20;;;;;;;7.12;100.00;99398.28;5096698;27;99291;-29
2024/01/05 10:23:40;;;;;;;0.95;0.20;;;;;;;7.16;100.00;99407.00;5078139;27;100313;-27
2024/01/05 10:26:14;;;;;;;0.35;0.25;;;;;;;7.15;100.00;99406.16;5078594;27;96610;-29
2024/01/05 10:28:40;;;;;;;0.10;0.10;;;;;;;7.22;100.00;99404.75;5097520;27;96533;-28
2024/01/05 10:31:13;;;;;;;0.65;0.40;;;;;;;7.18;100.00;99395.16;5096872;27;97900;-27
2024/01/05 10:33:55;;;;;;;0.10;0.10;;;;;;;7.15;100.00;99384.63;5078019;27;100738;-27
2024/01/05 10:36:26;;;;;;;0.25;0.05;;;;;;;7.13;100.00;99385.69;5096374;27;96537;-28
2024/01/05 10:38:51;;;;;;;0.40;0.40;;;;;;;7.08;100.00;99383.31;5096555;27;96766;-29
2024/01/05 10:41:20;;;;;;;0.00;0.00;;;;;;;7.07;100.00;99384.28;5096426;27;99288;-28
2024/01/05 10:43:46;;;;;;;0.00;0.00;;;;;;;7.06;100.00;99374.50;5077647;27;101170;-28
2024/01/05 10:46:14;;;;;;;0.00;0.00;;;;;;;7.05;100.00;99386.22;5078242;27;96709;-29
2024/01/05 10:48:40;;;;;;;0.00;0.00;;;;;;;7.11;100.00;99387.63;5078178;27;96884;-27
2024/01/05 10:51:08;;;;;;;0.88;0.08;;;;;;;7.13;100.00;99391.94;5077647;27;101199;-28
2024/01/05 10:53:34;;;;;;;0.28;0.15;;;;;;;7.12;100.00;99392.88;5077891;27;99276;-28
2024/01/05 10:56:01;;;;;;;0.10;0.10;;;;;;;7.12;100.00;99383.97;5096741;27;96556;-28
2024/01/05 10:58:27;;;;;;;0.45;0.22;;;;;;;7.18;100.00;99403.25;5077960;27;96541;-29
2024/01/05 11:00:54;;;;;;;0.00;0.00;;;;;;;7.21;100.00;99400.31;5094970;27;99384;-28
2024/01/05 11:03:22;;;;;;;0.93;0.60;;;;;;;7.26;100.00;99404.53;5096002;27;98468;-28
2024/01/05 11:05:47;;;;;;;0.17;0.08;;;;;;;7.32;100.00;99404.09;5096651;27;96453;-27
2024/01/05 11:08:22;;;;;;;0.05;0.05;;;;;;;7.32;100.00;99413.03;5077887;27;96864;-28
2024/01/05 11:11:04;;;;;;;0.10;0.10;;;;;;;7.32;100.00;99413.03;5077448;27;100768;-27
2024/01/05 11:13:45;;;;;;;0.00;0.00;;;;;;;7.34;100.00;99415.59;5095531;27;97532;-29
2024/01/05 11:16:13;;;;;;;0.15;0.10;;;;;;;7.40;100.00;99413.34;5077765;27;96693;-29
2024/01/05 11:19:06;;;;;;;0.00;0.00;;;;;;;7.38;100.00;99404.50;5096522;27;96830;-28
2024/01/05 11:21:45;;;;;;;0.17;0.17;;;;;;;7.52;100.00;99430.44;5095863;27;97976;-28
2024/01/05 11:24:14;;;;;;;0.15;0.10;;;;;;;7.52;100.00;99422.38;5096057;27;97988;-28
2024/01/05 11:26:42;;;;;;;0.15;0.15;;;;;;;7.56;100.00;99431.97;5076997;27;96604;-28
2024/01/05 11:29:45;;;;;;;0.10;0.10;;;;;;;7.65;100.00;99447.47;5077537;27;96895;-28